Time;durP1;ratioP1;P1;durP2;ratioP2;P2;SDS_P1;SDS_P2;PMS_P1;PMS_P2;Temp;Humidity;BMP_temperature;BMP_pressure;BME280_temperature;BME280_humidity;BME280_pressure;Samples;Min_cycle;Max_cycle;Signal;HPM_P1;HPM_P2
2023/05/16 00:02:02;;;;;;;12.33;5.40;;;;;;;;;;5030105;28;20287;-72
2023/05/16 00:04:27;;;;;;;13.35;4.90;;;;;;;;;;5030169;28;20263;-72
2023/05/16 00:06:53;;;;;;;9.23;4.53;;;;;;;;;;5029468;28;20071;-72
2023/05/16 00:09:18;;;;;;;10.35;4.90;;;;;;;;;;5033490;28;20267;-72
2023/05/16 00:11:43;;;;;;;10.38;4.93;;;;;;;;;;5030435;28;20478;-72
2023/05/16 00:14:08;;;;;;;9.63;4.70;;;;;;;;;;5030615;28;20096;-72
2023/05/16 00:16:35;;;;;;;10.20;4.53;;;;;;;;;;5029244;28;20021;-72
2023/05/16 00:19:01;;;;;;;8.15;4.38;;;;;;;;;;5029478;28;20270;-71
2023/05/16 00:21:26;;;;;;;12.23;5.50;;;;;;;;;;5030549;28;20510;-71
2023/05/16 00:23:52;;;;;;;12.88;5.75;;;;;;;;;;5029703;28;20052;-71
2023/05/16 00:26:17;;;;;;;11.03;5.20;;;;;;;;;;5030542;28;20021;-71
2023/05/16 00:28:43;;;;;;;11.95;4.55;;;;;;;;;;5028435;28;20334;-71
2023/05/16 00:31:08;;;;;;;10.52;5.25;;;;;;;;;;5030437;28;20021;-71
2023/05/16 00:33:33;;;;;;;13.60;5.73;;;;;;;;;;5033097;28;20021;-71
2023/05/16 00:35:58;;;;;;;9.80;6.15;;;;;;;;;;5031086;28;20663;-71
2023/05/16 00:38:24;;;;;;;20.13;7.80;;;;;;;;;;5029316;28;20053;-71
2023/05/16 00:40:49;;;;;;;16.77;6.95;;;;;;;;;;5029182;28;20267;-72
2023/05/16 00:43:14;;;;;;;13.50;6.77;;;;;;;;;;5030228;28;20021;-72
2023/05/16 00:45:39;;;;;;;12.68;7.18;;;;;;;;;;5029276;28;20256;-72
2023/05/16 00:48:05;;;;;;;14.93;8.23;;;;;;;;;;5033055;28;20389;-72
2023/05/16 00:50:31;;;;;;;15.88;8.07;;;;;;;;;;5029362;28;20317;-72
2023/05/16 00:52:56;;;;;;;19.80;8.85;;;;;;;;;;5031696;28;20032;-72
2023/05/16 00:55:21;;;;;;;15.82;7.80;;;;;;;;;;5032623;28;20377;-72
2023/05/16 00:57:47;;;;;;;11.65;6.25;;;;;;;;;;5028763;28;20466;-72
2023/05/16 01:00:14;;;;;;;10.73;6.05;;;;;;;;;;5032955;28;20052;-72
2023/05/16 01:02:39;;;;;;;12.00;6.53;;;;;;;;;;5030579;28;20116;-72
2023/05/16 01:05:07;;;;;;;12.60;6.07;;;;;;;;;;5028217;28;20550;-72
2023/05/16 01:07:32;;;;;;;11.25;5.55;;;;;;;;;;5031568;28;20096;-71
2023/05/16 01:09:57;;;;;;;9.93;4.90;;;;;;;;;;5030845;28;20378;-71
2023/05/16 01:12:28;;;;;;;15.40;5.28;;;;;;;;;;5035183;28;20022;-71
2023/05/16 01:14:54;;;;;;;11.30;5.10;;;;;;;;;;5025581;28;20052;-71
2023/05/16 01:17:22;;;;;;;9.95;5.03;;;;;;;;;;5029896;28;20447;-71
2023/05/16 01:19:52;;;;;;;12.02;5.13;;;;;;;;;;5027229;28;20441;-72
2023/05/16 01:22:38;;;;;;;9.43;4.75;;;;;;;;;;5029630;28;20423;-72
2023/05/16 01:25:21;;;;;;;8.27;4.45;;;;;;;;;;5010971;28;20033;-72
2023/05/16 01:27:47;;;;;;;7.88;4.10;;;;;;;;;;5030762;28;20191;-71
2023/05/16 01:30:14;;;;;;;8.60;4.00;;;;;;;;;;5030091;28;20379;-72
2023/05/16 01:32:40;;;;;;;12.13;4.28;;;;;;;;;;5027767;28;20017;-71
2023/05/16 01:35:06;;;;;;;10.35;5.35;;;;;;;;;;5031536;28;20083;-71
2023/05/16 01:37:35;;;;;;;11.32;5.75;;;;;;;;;;5030124;28;20026;-71
2023/05/16 01:40:06;;;;;;;10.52;6.15;;;;;;;;;;5029492;28;20032;-72
2023/05/16 01:42:33;;;;;;;17.33;6.35;;;;;;;;;;5034062;28;20014;-71
2023/05/16 01:45:02;;;;;;;12.32;7.45;;;;;;;;;;5033318;28;20036;-71
2023/05/16 01:47:28;;;;;;;11.77;6.93;;;;;;;;;;5033640;28;20478;-71
2023/05/16 01:50:05;;;;;;;12.32;6.35;;;;;;;;;;5031719;28;20038;-71
2023/05/16 01:52:35;;;;;;;17.52;6.82;;;;;;;;;;5031537;28;20025;-71
2023/05/16 01:55:00;;;;;;;9.98;5.30;;;;;;;;;;5032072;28;20048;-71
2023/05/16 01:57:26;;;;;;;13.25;6.07;;;;;;;;;;5035888;28;20479;-71
2023/05/16 01:59:52;;;;;;;12.93;5.85;;;;;;;;;;5032879;28;20025;-70
2023/05/16 02:02:17;;;;;;;12.75;5.80;;;;;;;;;;5032883;28;20494;-70
2023/05/16 02:04:43;;;;;;;9.70;5.20;;;;;;;;;;5032290;28;20021;-70
2023/05/16 02:07:08;;;;;;;7.93;3.87;;;;;;;;;;5033296;28;20044;-70
2023/05/16 02:09:33;;;;;;;6.47;3.72;;;;;;;;;;5034391;28;20260;-70
2023/05/16 02:11:59;;;;;;;7.70;3.80;;;;;;;;;;5034471;28;20100;-70
2023/05/16 02:14:24;;;;;;;6.60;3.33;;;;;;;;;;5032981;28;20690;-70
2023/05/16 02:16:49;;;;;;;8.25;3.45;;;;;;;;;;5035187;28;20498;-70
2023/05/16 02:19:15;;;;;;;12.20;3.47;;;;;;;;;;5032764;28;20044;-70
2023/05/16 02:21:40;;;;;;;12.10;3.70;;;;;;;;;;5033713;28;20030;-71
2023/05/16 02:24:05;;;;;;;10.15;3.70;;;;;;;;;;5034765;28;20275;-71
2023/05/16 02:26:30;;;;;;;11.25;3.40;;;;;;;;;;5032625;28;20017;-71
2023/05/16 02:28:55;;;;;;;15.70;4.13;;;;;;;;;;5033081;28;20112;-70
2023/05/16 02:31:27;;;;;;;12.00;3.53;;;;;;;;;;5031201;28;20513;-71
2023/05/16 02:33:53;;;;;;;8.23;3.47;;;;;;;;;;5029854;28;20252;-71
2023/05/16 02:36:18;;;;;;;14.40;3.57;;;;;;;;;;5032143;28;20113;-71
2023/05/16 02:38:43;;;;;;;21.30;3.83;;;;;;;;;;5032505;28;20248;-71
2023/05/16 02:41:08;;;;;;;10.10;3.70;;;;;;;;;;5032470;28;20264;-71
2023/05/16 02:43:33;;;;;;;10.57;4.00;;;;;;;;;;5028855;28;20307;-71
2023/05/16 02:45:58;;;;;;;11.25;3.63;;;;;;;;;;5029566;28;20267;-71
2023/05/16 02:48:24;;;;;;;15.47;3.57;;;;;;;;;;5032548;28;20021;-71
2023/05/16 02:50:49;;;;;;;7.13;3.28;;;;;;;;;;5035226;28;20295;-71
2023/05/16 02:53:14;;;;;;;25.50;3.85;;;;;;;;;;5030497;28;20099;-71
2023/05/16 02:55:40;;;;;;;12.45;3.42;;;;;;;;;;5036227;28;20021;-71
2023/05/16 02:58:05;;;;;;;12.13;4.18;;;;;;;;;;5032037;28;20222;-71
2023/05/16 03:00:30;;;;;;;18.60;4.73;;;;;;;;;;5033068;28;20021;-71
2023/05/16 03:02:55;;;;;;;24.03;4.07;;;;;;;;;;5030923;28;20280;-71
2023/05/16 03:05:21;;;;;;;12.80;3.88;;;;;;;;;;5034066;28;20299;-71
2023/05/16 03:07:46;;;;;;;15.23;3.83;;;;;;;;;;5030784;28;20091;-70
2023/05/16 03:10:11;;;;;;;12.90;4.73;;;;;;;;;;5033878;28;20022;-70
2023/05/16 03:12:36;;;;;;;26.37;5.60;;;;;;;;;;5031514;28;20302;-71
2023/05/16 03:15:02;;;;;;;20.83;4.07;;;;;;;;;;5027845;28;20291;-71
2023/05/16 03:17:28;;;;;;;15.15;4.50;;;;;;;;;;5031063;28;20279;-71
2023/05/16 03:19:53;;;;;;;23.10;4.90;;;;;;;;;;5032635;28;20025;-71
2023/05/16 03:22:18;;;;;;;15.90;3.77;;;;;;;;;;5034359;28;20629;-71
2023/05/16 03:24:43;;;;;;;20.67;4.90;;;;;;;;;;5030781;28;20351;-71
2023/05/16 03:27:08;;;;;;;21.95;5.13;;;;;;;;;;5032464;28;20021;-71
2023/05/16 03:29:34;;;;;;;26.85;5.20;;;;;;;;;;5032855;28;20018;-71
2023/05/16 03:31:59;;;;;;;17.60;4.50;;;;;;;;;;5031417;28;20841;-71
2023/05/16 03:34:24;;;;;;;17.98;6.80;;;;;;;;;;5030459;28;20075;-71
2023/05/16 03:36:50;;;;;;;24.80;6.40;;;;;;;;;;5031673;28;20033;-71
2023/05/16 03:39:16;;;;;;;23.52;6.78;;;;;;;;;;5031393;28;20081;-69
2023/05/16 03:41:41;;;;;;;25.67;5.90;;;;;;;;;;5030009;28;20492;-69
2023/05/16 03:44:06;;;;;;;20.42;6.72;;;;;;;;;;5032711;28;20502;-69
2023/05/16 03:46:31;;;;;;;16.57;5.83;;;;;;;;;;5031069;28;20044;-69
2023/05/16 03:48:56;;;;;;;23.60;4.53;;;;;;;;;;5031083;28;20295;-69
2023/05/16 03:51:22;;;;;;;17.83;5.85;;;;;;;;;;5034201;28;20346;-71
2023/05/16 03:53:47;;;;;;;29.00;6.00;;;;;;;;;;5031961;28;20025;-69
2023/05/16 03:56:12;;;;;;;23.92;5.20;;;;;;;;;;5032756;28;20017;-70
2023/05/16 03:58:38;;;;;;;18.08;4.93;;;;;;;;;;5030946;28;20020;-69
2023/05/16 04:01:03;;;;;;;22.83;4.80;;;;;;;;;;5034393;28;20040;-69
2023/05/16 04:03:29;;;;;;;19.17;5.97;;;;;;;;;;5029721;28;20268;-69
2023/05/16 04:05:55;;;;;;;27.65;4.75;;;;;;;;;;5032862;28;20637;-69
2023/05/16 04:08:20;;;;;;;26.27;4.20;;;;;;;;;;5031100;28;20016;-69
2023/05/16 04:10:45;;;;;;;19.10;4.78;;;;;;;;;;5034546;28;20013;-70
2023/05/16 04:13:10;;;;;;;27.27;4.93;;;;;;;;;;5031625;28;20064;-69
2023/05/16 04:15:35;;;;;;;21.63;4.87;;;;;;;;;;5028902;28;20521;-69
2023/05/16 04:18:01;;;;;;;24.97;7.13;;;;;;;;;;5030429;28;20321;-69
2023/05/16 04:20:26;;;;;;;24.70;4.10;;;;;;;;;;5030132;28;20339;-69
2023/05/16 04:22:52;;;;;;;37.80;5.50;;;;;;;;;;5029363;28;20045;-69
2023/05/16 04:25:17;;;;;;;29.67;4.30;;;;;;;;;;5029044;28;20068;-69
2023/05/16 04:27:42;;;;;;;25.88;4.60;;;;;;;;;;5031657;28;20036;-69
2023/05/16 04:30:08;;;;;;;17.70;4.18;;;;;;;;;;5030688;28;20010;-69
2023/05/16 04:32:35;;;;;;;25.83;4.70;;;;;;;;;;5032962;28;20096;-69
2023/05/16 04:35:00;;;;;;;15.52;3.92;;;;;;;;;;5029410;28;20096;-70
2023/05/16 04:37:26;;;;;;;25.58;4.75;;;;;;;;;;5031000;28;20446;-69
2023/05/16 04:39:53;;;;;;;20.73;4.03;;;;;;;;;;5030460;28;20072;-69
2023/05/16 04:42:18;;;;;;;28.33;4.30;;;;;;;;;;5030515;28;20056;-69
2023/05/16 04:44:43;;;;;;;18.80;4.47;;;;;;;;;;5026882;28;20049;-69
2023/05/16 04:47:08;;;;;;;29.98;4.07;;;;;;;;;;5028583;28;20005;-69
2023/05/16 04:49:34;;;;;;;19.60;4.73;;;;;;;;;;5029880;28;20018;-70
2023/05/16 04:51:59;;;;;;;17.35;3.80;;;;;;;;;;5032354;28;20616;-69
2023/05/16 04:54:25;;;;;;;33.03;4.65;;;;;;;;;;5032484;28;20071;-69
2023/05/16 04:56:50;;;;;;;14.38;3.05;;;;;;;;;;5028527;28;20071;-69
2023/05/16 04:59:15;;;;;;;17.25;4.18;;;;;;;;;;5026029;28;20022;-69
2023/05/16 05:01:40;;;;;;;30.10;3.77;;;;;;;;;;5029071;28;20025;-69
2023/05/16 05:04:06;;;;;;;27.95;3.25;;;;;;;;;;5031017;28;20268;-69
2023/05/16 05:06:31;;;;;;;20.35;3.53;;;;;;;;;;5033047;28;20045;-69
2023/05/16 05:08:56;;;;;;;18.35;3.60;;;;;;;;;;5029405;28;20546;-69
2023/05/16 05:11:22;;;;;;;28.73;4.20;;;;;;;;;;5029348;28;20025;-69
2023/05/16 05:13:47;;;;;;;22.13;3.80;;;;;;;;;;5026013;28;20356;-69
2023/05/16 05:16:12;;;;;;;15.82;2.75;;;;;;;;;;5034421;28;20479;-69
2023/05/16 05:18:37;;;;;;;18.58;4.15;;;;;;;;;;5033660;28;20028;-70
2023/05/16 05:21:02;;;;;;;21.92;3.17;;;;;;;;;;5028846;28;20022;-69
2023/05/16 05:23:28;;;;;;;24.45;3.65;;;;;;;;;;5023844;28;20029;-69
2023/05/16 05:25:54;;;;;;;19.98;3.17;;;;;;;;;;5029108;28;20553;-69
2023/05/16 05:28:19;;;;;;;16.15;3.10;;;;;;;;;;5028898;28;20135;-69
2023/05/16 05:30:45;;;;;;;13.23;3.55;;;;;;;;;;5024611;28;20029;-69
2023/05/16 05:33:13;;;;;;;34.22;4.78;;;;;;;;;;5031019;28;20025;-69
2023/05/16 05:35:38;;;;;;;28.90;4.65;;;;;;;;;;5032225;28;20044;-69
2023/05/16 05:38:03;;;;;;;24.03;3.80;;;;;;;;;;5030527;28;20422;-69
2023/05/16 05:40:28;;;;;;;17.03;3.43;;;;;;;;;;5031980;28;20271;-69
2023/05/16 05:42:53;;;;;;;33.10;4.30;;;;;;;;;;5035261;28;20838;-72
2023/05/16 05:45:18;;;;;;;32.93;6.00;;;;;;;;;;5032113;28;20339;-72
2023/05/16 05:47:44;;;;;;;19.98;3.92;;;;;;;;;;5033814;28;20630;-72
2023/05/16 05:50:14;;;;;;;15.70;3.50;;;;;;;;;;5029543;28;20049;-69
2023/05/16 05:52:39;;;;;;;24.23;4.38;;;;;;;;;;5029972;28;20104;-70
2023/05/16 05:55:05;;;;;;;21.40;3.17;;;;;;;;;;5029534;28;20203;-69
2023/05/16 05:57:30;;;;;;;22.23;3.33;;;;;;;;;;5031193;28;20505;-69
2023/05/16 05:59:55;;;;;;;26.60;3.33;;;;;;;;;;5032750;28;20030;-69
2023/05/16 06:02:20;;;;;;;22.65;3.60;;;;;;;;;;5032631;28;20032;-69
2023/05/16 06:04:45;;;;;;;13.10;2.13;;;;;;;;;;5033067;28;20041;-69
2023/05/16 06:07:11;;;;;;;22.33;4.00;;;;;;;;;;5032528;28;20013;-69
2023/05/16 06:09:36;;;;;;;19.65;4.82;;;;;;;;;;5033303;28;20633;-69
2023/05/16 06:12:03;;;;;;;24.45;2.72;;;;;;;;;;5031645;28;20450;-69
2023/05/16 06:14:28;;;;;;;15.40;3.08;;;;;;;;;;5036435;28;20531;-69
2023/05/16 06:16:53;;;;;;;18.43;3.40;;;;;;;;;;5034997;28;20018;-69
2023/05/16 06:19:18;;;;;;;20.10;2.70;;;;;;;;;;5032169;28;20275;-69
2023/05/16 06:21:43;;;;;;;14.57;1.90;;;;;;;;;;5035366;28;20350;-69
2023/05/16 06:24:09;;;;;;;16.02;2.90;;;;;;;;;;5031147;28;20252;-69
2023/05/16 06:26:34;;;;;;;25.60;3.17;;;;;;;;;;5035343;28;20082;-69
2023/05/16 06:29:00;;;;;;;14.50;3.38;;;;;;;;;;5030841;28;20100;-69
2023/05/16 06:31:25;;;;;;;15.50;2.33;;;;;;;;;;5030396;28;20097;-69
2023/05/16 06:33:50;;;;;;;11.65;2.75;;;;;;;;;;5030176;28;20382;-68
2023/05/16 06:36:16;;;;;;;14.40;2.13;;;;;;;;;;5032307;28;20018;-68
2023/05/16 06:38:41;;;;;;;23.70;2.97;;;;;;;;;;5032790;28;20424;-69
2023/05/16 06:41:06;;;;;;;22.75;2.90;;;;;;;;;;5030342;28;20268;-68
2023/05/16 06:43:32;;;;;;;10.43;2.17;;;;;;;;;;5034721;28;20185;-68
2023/05/16 06:45:57;;;;;;;12.50;2.37;;;;;;;;;;5030353;28;20032;-68
2023/05/16 06:48:22;;;;;;;18.85;3.70;;;;;;;;;;5034373;28;21027;-69
2023/05/16 06:50:48;;;;;;;14.40;2.10;;;;;;;;;;5028923;28;20429;-69
2023/05/16 06:53:13;;;;;;;14.25;2.33;;;;;;;;;;5028927;28;20282;-69
2023/05/16 06:55:38;;;;;;;14.93;2.00;;;;;;;;;;5034735;28;20031;-68
2023/05/16 06:58:03;;;;;;;19.47;2.23;;;;;;;;;;5032993;28;20272;-68
2023/05/16 07:00:28;;;;;;;17.90;2.00;;;;;;;;;;5033349;28;20351;-68
2023/05/16 07:02:53;;;;;;;12.20;2.13;;;;;;;;;;5031780;28;20021;-68
2023/05/16 07:05:19;;;;;;;11.27;2.07;;;;;;;;;;5030764;28;20268;-68
2023/05/16 07:07:44;;;;;;;12.25;1.90;;;;;;;;;;5031663;28;20352;-68
2023/05/16 07:10:09;;;;;;;18.38;2.05;;;;;;;;;;5031563;28;20063;-68
2023/05/16 07:12:36;;;;;;;24.10;2.58;;;;;;;;;;5031831;28;20025;-68
2023/05/16 07:15:02;;;;;;;22.27;2.55;;;;;;;;;;5030830;28;20017;-68
2023/05/16 07:17:27;;;;;;;8.35;1.88;;;;;;;;;;5030490;28;20108;-68
2023/05/16 07:19:52;;;;;;;9.00;1.90;;;;;;;;;;5024848;28;20532;-68
2023/05/16 07:22:17;;;;;;;12.73;1.98;;;;;;;;;;5030969;28;20311;-68
2023/05/16 07:24:43;;;;;;;11.53;2.20;;;;;;;;;;5033063;28;20084;-68
2023/05/16 07:27:08;;;;;;;11.63;1.60;;;;;;;;;;5029440;28;20356;-68
2023/05/16 07:29:34;;;;;;;16.67;3.07;;;;;;;;;;5032992;28;20378;-69
2023/05/16 07:31:59;;;;;;;4.75;1.20;;;;;;;;;;5030350;28;20651;-69
2023/05/16 07:34:25;;;;;;;14.90;1.80;;;;;;;;;;5037120;28;20104;-69
2023/05/16 07:36:50;;;;;;;11.48;1.65;;;;;;;;;;5029551;28;20017;-69
2023/05/16 07:39:15;;;;;;;12.27;1.43;;;;;;;;;;5027027;28;20385;-69
2023/05/16 07:41:40;;;;;;;9.88;2.05;;;;;;;;;;5033022;28;20383;-69
2023/05/16 07:44:06;;;;;;;9.77;2.30;;;;;;;;;;5030322;28;20344;-69
2023/05/16 07:46:31;;;;;;;10.07;1.83;;;;;;;;;;5030553;28;20350;-69
2023/05/16 07:48:56;;;;;;;10.80;1.93;;;;;;;;;;5030199;28;20310;-69
2023/05/16 07:51:21;;;;;;;18.07;1.97;;;;;;;;;;5029642;28;20328;-69
2023/05/16 07:53:46;;;;;;;14.87;1.67;;;;;;;;;;5028703;28;20025;-69
2023/05/16 07:56:12;;;;;;;9.48;1.58;;;;;;;;;;5029820;28;20268;-69
2023/05/16 07:58:37;;;;;;;11.10;1.60;;;;;;;;;;5031394;28;20014;-69
2023/05/16 08:01:03;;;;;;;10.68;1.58;;;;;;;;;;5031377;28;20279;-69
2023/05/16 08:03:28;;;;;;;7.68;1.42;;;;;;;;;;5030670;28;20487;-69
2023/05/16 08:05:53;;;;;;;4.77;1.27;;;;;;;;;;5028496;28;20181;-69
2023/05/16 08:08:18;;;;;;;8.27;1.50;;;;;;;;;;5032022;28;20055;-69
2023/05/16 08:10:44;;;;;;;9.30;1.30;;;;;;;;;;5030692;28;20295;-69
2023/05/16 08:13:09;;;;;;;13.18;1.50;;;;;;;;;;5028466;28;20048;-69
2023/05/16 08:15:34;;;;;;;10.00;1.77;;;;;;;;;;5028824;28;20394;-69
2023/05/16 08:18:00;;;;;;;5.80;1.30;;;;;;;;;;5033814;28;20846;-69
2023/05/16 08:20:25;;;;;;;7.90;1.10;;;;;;;;;;5032667;28;20055;-69
2023/05/16 08:22:51;;;;;;;7.30;1.40;;;;;;;;;;5029597;28;20084;-69
2023/05/16 08:25:16;;;;;;;13.00;1.55;;;;;;;;;;5029134;28;20032;-69
2023/05/16 08:27:41;;;;;;;14.83;2.03;;;;;;;;;;5030169;28;20037;-69
2023/05/16 08:30:07;;;;;;;11.88;1.40;;;;;;;;;;5033318;28;20293;-69
2023/05/16 08:32:32;;;;;;;14.10;1.73;;;;;;;;;;5030249;28;20104;-69
2023/05/16 08:34:58;;;;;;;9.90;2.05;;;;;;;;;;5031269;28;20509;-69
2023/05/16 08:37:23;;;;;;;8.20;1.25;;;;;;;;;;5031305;28;20095;-69
2023/05/16 08:39:49;;;;;;;4.72;1.13;;;;;;;;;;5027328;28;20021;-69
2023/05/16 08:42:14;;;;;;;8.32;1.48;;;;;;;;;;5033468;28;20428;-69
2023/05/16 08:44:39;;;;;;;4.40;0.88;;;;;;;;;;5027623;28;20371;-69
2023/05/16 08:47:11;;;;;;;4.78;1.10;;;;;;;;;;5030705;28;20021;-69
2023/05/16 08:49:38;;;;;;;10.75;1.48;;;;;;;;;;5028154;28;20029;-69
2023/05/16 08:52:04;;;;;;;5.53;1.23;;;;;;;;;;5025833;28;20525;-69
2023/05/16 08:54:29;;;;;;;4.88;1.20;;;;;;;;;;5029091;28;20024;-69
2023/05/16 08:56:56;;;;;;;7.40;1.50;;;;;;;;;;5022956;28;20052;-69
2023/05/16 08:59:21;;;;;;;5.63;1.17;;;;;;;;;;5023709;28;20025;-69
2023/05/16 09:01:47;;;;;;;9.18;1.80;;;;;;;;;;5027760;28;20495;-69
2023/05/16 09:04:12;;;;;;;9.88;1.08;;;;;;;;;;5029480;28;20017;-69
2023/05/16 09:06:38;;;;;;;7.55;0.88;;;;;;;;;;5029715;28;20018;-69
2023/05/16 09:09:13;;;;;;;13.07;2.07;;;;;;;;;;5026999;28;20017;-69
2023/05/16 09:11:50;;;;;;;7.60;1.10;;;;;;;;;;5029879;28;20037;-69
2023/05/16 09:14:15;;;;;;;7.00;1.05;;;;;;;;;;5023664;28;20040;-69
2023/05/16 09:16:41;;;;;;;12.02;2.40;;;;;;;;;;5027797;28;20486;-70
2023/05/16 09:19:06;;;;;;;7.97;1.10;;;;;;;;;;5027262;28;20014;-71
2023/05/16 09:21:32;;;;;;;6.63;0.98;;;;;;;;;;5024342;28;20399;-70
2023/05/16 09:24:03;;;;;;;4.30;1.05;;;;;;;;;;5022152;28;20121;-70
2023/05/16 09:26:30;;;;;;;8.25;1.38;;;;;;;;;;5029543;28;20017;-70
2023/05/16 09:28:55;;;;;;;10.55;1.35;;;;;;;;;;5030756;28;20472;-70
2023/05/16 09:31:21;;;;;;;10.67;1.87;;;;;;;;;;5029397;28;20017;-70
2023/05/16 09:33:48;;;;;;;5.97;1.15;;;;;;;;;;5025683;28;20017;-70
2023/05/16 09:36:14;;;;;;;12.05;1.80;;;;;;;;;;5029119;28;20021;-71
2023/05/16 09:38:39;;;;;;;4.60;1.20;;;;;;;;;;5025960;28;20029;-70
2023/05/16 09:41:05;;;;;;;9.68;1.45;;;;;;;;;;5021181;28;20111;-70
2023/05/16 09:43:30;;;;;;;5.82;2.80;;;;;;;;;;5024990;28;20022;-70
2023/05/16 09:45:58;;;;;;;7.90;1.85;;;;;;;;;;5016811;28;20372;-70
2023/05/16 09:48:27;;;;;;;12.00;1.65;;;;;;;;;;5022057;28;20375;-70
2023/05/16 09:50:53;;;;;;;6.85;1.17;;;;;;;;;;5028068;28;20534;-71
2023/05/16 09:53:28;;;;;;;7.32;0.70;;;;;;;;;;5029652;28;20024;-71
2023/05/16 09:56:03;;;;;;;9.73;1.35;;;;;;;;;;5027490;28;20018;-71
2023/05/16 09:58:29;;;;;;;6.57;1.40;;;;;;;;;;5029440;28;20017;-71
2023/05/16 10:00:55;;;;;;;12.15;1.50;;;;;;;;;;5027926;28;20017;-71
2023/05/16 10:03:21;;;;;;;12.10;2.72;;;;;;;;;;5034675;28;20163;-71
2023/05/16 10:05:46;;;;;;;7.35;1.30;;;;;;;;;;5030756;28;20100;-71
2023/05/16 10:08:12;;;;;;;4.80;1.38;;;;;;;;;;5026332;28;20378;-71
2023/05/16 10:10:38;;;;;;;7.40;1.30;;;;;;;;;;5038181;28;20083;-71
2023/05/16 10:13:04;;;;;;;7.32;1.40;;;;;;;;;;5032661;28;20501;-71
2023/05/16 10:15:29;;;;;;;14.18;1.90;;;;;;;;;;5029841;28;20363;-71
2023/05/16 10:17:56;;;;;;;7.88;1.52;;;;;;;;;;5029049;28;20029;-71
2023/05/16 10:20:21;;;;;;;7.03;1.33;;;;;;;;;;5023646;28;20072;-71
2023/05/16 10:22:50;;;;;;;4.90;1.42;;;;;;;;;;5032243;28;22041;-71
2023/05/16 10:25:27;;;;;;;4.82;1.05;;;;;;;;;;5033049;28;20550;-71
2023/05/16 10:27:53;;;;;;;5.60;0.98;;;;;;;;;;5021524;28;20331;-71
2023/05/16 10:30:18;;;;;;;4.95;1.08;;;;;;;;;;5032991;28;20013;-71
2023/05/16 10:32:45;;;;;;;10.73;1.48;;;;;;;;;;5037308;28;20021;-72
2023/05/16 10:35:10;;;;;;;9.15;1.02;;;;;;;;;;5027993;28;20025;-71
2023/05/16 10:37:36;;;;;;;4.72;1.10;;;;;;;;;;5030302;28;20022;-71
2023/05/16 10:40:04;;;;;;;4.30;1.02;;;;;;;;;;5031515;28;20493;-71
2023/05/16 10:42:31;;;;;;;8.77;1.30;;;;;;;;;;5037119;28;20478;-72
2023/05/16 10:45:08;;;;;;;6.95;0.95;;;;;;;;;;5032065;28;20550;-71
2023/05/16 10:47:33;;;;;;;4.57;1.45;;;;;;;;;;5028529;28;20032;-71
2023/05/16 10:49:58;;;;;;;6.00;0.88;;;;;;;;;;5027805;28;20010;-71
2023/05/16 10:52:32;;;;;;;4.70;0.87;;;;;;;;;;5028228;28;20463;-71
2023/05/16 10:55:01;;;;;;;11.45;1.20;;;;;;;;;;5030263;28;20367;-72
2023/05/16 10:57:26;;;;;;;6.20;0.63;;;;;;;;;;5033576;28;20504;-72
2023/05/16 10:59:52;;;;;;;4.90;1.08;;;;;;;;;;5030902;28;20025;-72
2023/05/16 11:02:20;;;;;;;5.93;1.20;;;;;;;;;;5033186;28;20036;-72
2023/05/16 11:04:50;;;;;;;6.53;1.67;;;;;;;;;;5031295;28;20021;-72
2023/05/16 11:07:16;;;;;;;8.32;0.93;;;;;;;;;;5034460;28;20017;-72
2023/05/16 11:09:51;;;;;;;4.82;0.95;;;;;;;;;;5033286;28;20048;-72
2023/05/16 11:12:19;;;;;;;11.32;1.15;;;;;;;;;;5029735;28;20383;-72
2023/05/16 11:14:48;;;;;;;8.95;1.50;;;;;;;;;;5033015;28;20022;-72
2023/05/16 11:17:15;;;;;;;7.75;1.10;;;;;;;;;;5027271;28;20023;-72
2023/05/16 11:19:46;;;;;;;8.50;0.88;;;;;;;;;;5023788;28;20398;-71
2023/05/16 11:22:31;;;;;;;3.88;0.93;;;;;;;;;;5028855;28;20453;-71
2023/05/16 11:25:00;;;;;;;6.75;0.80;;;;;;;;;;5033635;28;20071;-72
2023/05/16 11:27:27;;;;;;;9.70;1.70;;;;;;;;;;5032422;28;20360;-72
2023/05/16 11:29:53;;;;;;;5.22;1.30;;;;;;;;;;5023899;28;20039;-72
2023/05/16 11:32:19;;;;;;;7.30;1.45;;;;;;;;;;5028684;28;20034;-72
2023/05/16 11:34:45;;;;;;;9.13;1.25;;;;;;;;;;5029740;28;20025;-72
2023/05/16 11:37:11;;;;;;;10.30;1.73;;;;;;;;;;5027844;28;20048;-72
2023/05/16 11:39:36;;;;;;;5.13;1.42;;;;;;;;;;5032590;28;20017;-72
2023/05/16 11:42:02;;;;;;;10.03;1.20;;;;;;;;;;5033217;28;20029;-72
2023/05/16 11:44:27;;;;;;;10.90;1.65;;;;;;;;;;5032440;28;20052;-73
2023/05/16 11:46:52;;;;;;;6.47;1.67;;;;;;;;;;5028839;28;20109;-73
2023/05/16 11:49:17;;;;;;;5.72;1.88;;;;;;;;;;5031719;28;20429;-73
2023/05/16 11:51:43;;;;;;;15.80;1.73;;;;;;;;;;5033336;28;20032;-72
2023/05/16 11:54:08;;;;;;;2.08;1.35;;;;;;;;;;5031073;28;20023;-72
2023/05/16 11:56:34;;;;;;;14.55;2.28;;;;;;;;;;5020138;28;20028;-72
2023/05/16 11:59:00;;;;;;;7.68;1.70;;;;;;;;;;5031044;28;20047;-71
2023/05/16 12:01:30;;;;;;;10.60;2.22;;;;;;;;;;5030819;28;20153;-71
2023/05/16 12:03:56;;;;;;;13.07;2.13;;;;;;;;;;5032514;28;20028;-71
2023/05/16 12:06:21;;;;;;;8.10;1.75;;;;;;;;;;5030955;28;20023;-72
2023/05/16 12:08:50;;;;;;;6.43;1.40;;;;;;;;;;5027247;28;20043;-72
2023/05/16 12:11:16;;;;;;;4.88;1.13;;;;;;;;;;5031621;28;20089;-72
2023/05/16 12:13:41;;;;;;;10.88;1.55;;;;;;;;;;5034984;28;20109;-72
2023/05/16 12:16:06;;;;;;;5.57;1.43;;;;;;;;;;5029559;28;20137;-72
2023/05/16 12:18:31;;;;;;;6.78;1.25;;;;;;;;;;5028976;28;20355;-72
2023/05/16 12:20:57;;;;;;;8.13;1.38;;;;;;;;;;5029991;28;20025;-72
2023/05/16 12:23:22;;;;;;;11.40;1.80;;;;;;;;;;5030691;28;20033;-72
2023/05/16 12:25:48;;;;;;;7.53;1.90;;;;;;;;;;5028727;28;20256;-71
2023/05/16 12:28:14;;;;;;;7.35;1.80;;;;;;;;;;5030858;28;20037;-72
2023/05/16 12:30:43;;;;;;;11.23;1.70;;;;;;;;;;5030362;28;20467;-72
2023/05/16 12:33:09;;;;;;;5.75;1.05;;;;;;;;;;5030816;28;20082;-72
2023/05/16 12:35:36;;;;;;;5.93;1.40;;;;;;;;;;5030021;28;20025;-73
2023/05/16 12:38:06;;;;;;;8.32;1.23;;;;;;;;;;5024754;28;20025;-72
2023/05/16 12:40:31;;;;;;;3.92;1.13;;;;;;;;;;5024895;28;20021;-72
2023/05/16 12:42:57;;;;;;;11.00;1.77;;;;;;;;;;5030391;28;20355;-72
2023/05/16 12:45:22;;;;;;;4.47;0.98;;;;;;;;;;5030293;28;20063;-72
2023/05/16 12:47:48;;;;;;;14.77;1.52;;;;;;;;;;5026757;28;20391;-71
2023/05/16 12:50:15;;;;;;;5.60;1.23;;;;;;;;;;5029355;28;20485;-70
2023/05/16 12:52:48;;;;;;;15.90;1.42;;;;;;;;;;5029470;28;20048;-70
2023/05/16 12:55:13;;;;;;;10.82;1.45;;;;;;;;;;5024503;28;20018;-70
2023/05/16 12:57:40;;;;;;;10.13;1.00;;;;;;;;;;5026441;28;20040;-71
2023/05/16 13:00:07;;;;;;;4.60;1.00;;;;;;;;;;5023006;28;20032;-71
2023/05/16 13:02:32;;;;;;;7.18;1.10;;;;;;;;;;5019505;28;20463;-70
2023/05/16 13:04:57;;;;;;;18.13;1.87;;;;;;;;;;5029273;28;20112;-71
2023/05/16 13:07:22;;;;;;;4.97;1.43;;;;;;;;;;5034335;28;20266;-71
2023/05/16 13:09:47;;;;;;;7.67;1.50;;;;;;;;;;5029322;28;20112;-70
2023/05/16 13:12:13;;;;;;;6.20;1.45;;;;;;;;;;5029593;28;20266;-71
2023/05/16 13:14:38;;;;;;;4.38;0.82;;;;;;;;;;5030800;28;20421;-71
2023/05/16 13:17:03;;;;;;;6.43;1.05;;;;;;;;;;5019601;28;20368;-71
2023/05/16 13:19:30;;;;;;;1.53;0.63;;;;;;;;;;5033782;28;20067;-71
2023/05/16 13:21:55;;;;;;;3.47;0.80;;;;;;;;;;5029651;28;20492;-71
2023/05/16 13:24:21;;;;;;;4.38;0.73;;;;;;;;;;5028107;28;20033;-71
2023/05/16 13:26:46;;;;;;;6.13;0.80;;;;;;;;;;5022758;28;20455;-70
2023/05/16 13:29:12;;;;;;;5.13;0.82;;;;;;;;;;5028807;28;20271;-70
2023/05/16 13:31:37;;;;;;;5.88;0.93;;;;;;;;;;5032303;28;20014;-71
2023/05/16 13:34:03;;;;;;;3.80;0.63;;;;;;;;;;5025853;28;20025;-70
2023/05/16 13:36:28;;;;;;;2.92;0.52;;;;;;;;;;5029258;28;20283;-71
2023/05/16 13:38:53;;;;;;;5.17;1.37;;;;;;;;;;5032792;28;20052;-71
2023/05/16 13:41:18;;;;;;;5.73;0.90;;;;;;;;;;5033225;28;20286;-71
2023/05/16 13:43:43;;;;;;;1.33;0.50;;;;;;;;;;5033310;28;20029;-71
2023/05/16 13:46:08;;;;;;;3.77;0.53;;;;;;;;;;5032591;28;20324;-71
2023/05/16 13:48:34;;;;;;;3.28;0.75;;;;;;;;;;5033759;28;20021;-71
2023/05/16 13:50:59;;;;;;;3.58;1.02;;;;;;;;;;5033021;28;20100;-71
2023/05/16 13:53:25;;;;;;;5.30;0.83;;;;;;;;;;5036244;28;20372;-72
2023/05/16 13:55:50;;;;;;;2.65;0.75;;;;;;;;;;5032971;28;20299;-72
2023/05/16 13:58:15;;;;;;;4.55;0.73;;;;;;;;;;5028541;28;20021;-72
2023/05/16 14:00:40;;;;;;;6.45;0.77;;;;;;;;;;5032651;28;20136;-72
2023/05/16 14:03:06;;;;;;;6.17;0.87;;;;;;;;;;5035261;28;20128;-72
2023/05/16 14:05:31;;;;;;;1.70;0.70;;;;;;;;;;5032965;28;20788;-72
2023/05/16 14:07:56;;;;;;;3.17;0.90;;;;;;;;;;5032245;28;20076;-72
2023/05/16 14:10:22;;;;;;;3.28;0.98;;;;;;;;;;5033587;28;21419;-72
2023/05/16 14:12:47;;;;;;;9.13;0.85;;;;;;;;;;5032157;28;20024;-72
2023/05/16 14:15:13;;;;;;;4.20;0.80;;;;;;;;;;5030369;28;20494;-72
2023/05/16 14:17:38;;;;;;;2.75;0.77;;;;;;;;;;5030350;28;20108;-72
2023/05/16 14:20:08;;;;;;;4.47;1.02;;;;;;;;;;5033310;28;20020;-72
2023/05/16 14:22:34;;;;;;;5.35;2.05;;;;;;;;;;5032454;28;20060;-72
2023/05/16 14:24:59;;;;;;;3.42;0.73;;;;;;;;;;5031220;28;20478;-72
2023/05/16 14:27:24;;;;;;;5.07;1.00;;;;;;;;;;5031072;28;20017;-72
2023/05/16 14:29:49;;;;;;;4.50;0.77;;;;;;;;;;5028738;28;20260;-72